Thornton, Wisconsin
Current Conditions -  °F | °C
As of 9:35 AM on Friday 24 Oct 2014 (Local Time) from KEZS Reporting Station
Haze Haze  
Wind Chill: 46°   Ceiling: 200
Heat Index: 48°   Visibility: 2mi
Dew Point: 47°   Wind: 5mph
Humidity: 95%   Direction: 240°WSW
Pressure: 30.03"   Gusts: NA
Location:  44.7924°N, 88.6722°W
Report Text: KEZS 241435Z AUTO 24004KT 2SM BR OVC002 09/08 A3003 RMK AO2 T00900082
Loading
Personal Weather Stations






























Interactive Weather Map
Tropical Storm Tracking
New forecast layout! Learn more

10-Day Weather Forecast

Advertisements
Track Severe Weather on mobile